Time;durP1;ratioP1;P1;durP2;ratioP2;P2;SDS_P1;SDS_P2;PMS_P1;PMS_P2;Temp;Humidity;BMP_temperature;BMP_pressure;BME280_temperature;BME280_humidity;BME280_pressure;Samples;Min_cycle;Max_cycle;Signal;HPM_P1;HPM_P2
2022/01/19 00:01:59;;;;;;;31.30;13.35;;;5.90;99.90;;;;;;5081034;28;20515;-43
2022/01/19 00:04:24;;;;;;;35.28;14.55;;;5.90;99.90;;;;;;5089647;28;20066;-43
2022/01/19 00:06:50;;;;;;;42.30;14.02;;;5.80;99.90;;;;;;5089584;28;20043;-44
2022/01/19 00:09:15;;;;;;;30.40;12.98;;;5.90;99.90;;;;;;5089095;28;20085;-44
2022/01/19 00:11:41;;;;;;;36.75;13.85;;;5.80;99.90;;;;;;5089649;28;20024;-44
2022/01/19 00:14:06;;;;;;;32.88;13.18;;;5.80;99.90;;;;;;5089153;28;20031;-44
2022/01/19 00:16:32;;;;;;;31.75;12.70;;;5.80;99.90;;;;;;5089108;28;20106;-44
2022/01/19 00:18:57;;;;;;;21.50;11.85;;;5.90;99.90;;;;;;5088687;28;20025;-44
2022/01/19 00:21:23;;;;;;;30.85;12.80;;;5.90;99.90;;;;;;5089301;28;20028;-44
2022/01/19 00:23:48;;;;;;;22.92;11.23;;;5.80;99.90;;;;;;5088773;28;20036;-44
2022/01/19 00:26:14;;;;;;;36.83;13.20;;;5.80;99.90;;;;;;5089000;28;20337;-44
2022/01/19 00:28:39;;;;;;;29.20;12.07;;;5.80;99.90;;;;;;5083275;28;20036;-44
2022/01/19 00:31:05;;;;;;;27.67;12.32;;;5.80;99.90;;;;;;5077812;28;20490;-45
2022/01/19 00:33:30;;;;;;;31.88;12.48;;;5.80;99.90;;;;;;5089156;28;20149;-45
2022/01/19 00:35:56;;;;;;;26.10;12.48;;;5.70;99.90;;;;;;5079796;28;20021;-44
2022/01/19 00:38:21;;;;;;;36.42;12.02;;;5.70;99.90;;;;;;5068182;28;20383;-45
2022/01/19 00:40:47;;;;;;;30.23;11.98;;;5.70;99.90;;;;;;5068676;28;20032;-46
2022/01/19 00:43:14;;;;;;;30.50;11.75;;;5.70;99.90;;;;;;5068708;28;20036;-45
2022/01/19 00:45:40;;;;;;;25.27;11.50;;;5.70;99.90;;;;;;5068386;28;20078;-44
2022/01/19 00:48:05;;;;;;;33.55;13.38;;;5.70;99.90;;;;;;5067889;28;20024;-45
2022/01/19 00:50:31;;;;;;;30.35;11.73;;;5.70;99.90;;;;;;5068593;28;20056;-46
2022/01/19 00:52:57;;;;;;;32.08;11.52;;;5.60;99.90;;;;;;5068903;28;20025;-45
2022/01/19 00:55:24;;;;;;;30.33;11.98;;;5.60;99.90;;;;;;5068480;28;20116;-44
2022/01/19 00:57:51;;;;;;;35.38;11.02;;;5.60;99.90;;;;;;5067792;28;20040;-45
2022/01/19 01:00:20;;;;;;;29.33;11.70;;;5.60;99.90;;;;;;5075552;28;20043;-45
2022/01/19 01:02:46;;;;;;;23.70;11.15;;;5.60;99.90;;;;;;5084312;28;20024;-45
2022/01/19 01:05:11;;;;;;;34.58;11.18;;;5.60;99.90;;;;;;5088842;28;20389;-45
2022/01/19 01:07:38;;;;;;;30.42;10.90;;;5.50;99.90;;;;;;5088235;28;20073;-45
2022/01/19 01:10:06;;;;;;;24.80;9.85;;;5.50;99.90;;;;;;5088694;28;20020;-45
2022/01/19 01:12:44;;;;;;;21.58;10.85;;;5.50;99.90;;;;;;5088615;28;20111;-45
2022/01/19 01:15:47;;;;;;;30.70;11.05;;;5.50;99.90;;;;;;5088292;28;20020;-45
2022/01/19 01:18:20;;;;;;;29.05;11.07;;;5.50;99.90;;;;;;5088055;28;20441;-44
2022/01/19 01:20:49;;;;;;;32.22;11.18;;;5.40;99.90;;;;;;5088472;28;20028;-45
2022/01/19 01:23:15;;;;;;;23.30;10.57;;;5.40;99.90;;;;;;5088246;28;20056;-44
2022/01/19 01:25:41;;;;;;;23.60;11.02;;;5.40;99.90;;;;;;5088302;28;20028;-45
2022/01/19 01:28:07;;;;;;;29.55;12.10;;;5.40;99.90;;;;;;5087778;28;20077;-45
2022/01/19 01:30:34;;;;;;;32.50;11.63;;;5.40;99.90;;;;;;5076643;28;20017;-45
2022/01/19 01:33:00;;;;;;;37.05;14.27;;;5.40;99.90;;;;;;5085878;28;20182;-45
2022/01/19 01:35:26;;;;;;;39.80;13.77;;;5.40;99.90;;;;;;5088264;28;20390;-45
2022/01/19 01:37:51;;;;;;;37.28;14.65;;;5.30;99.90;;;;;;5086258;28;20039;-44
2022/01/19 01:40:17;;;;;;;35.53;14.68;;;5.30;99.90;;;;;;5088469;28;20479;-46
2022/01/19 01:42:44;;;;;;;32.45;14.02;;;5.30;99.90;;;;;;5092056;28;20540;-45
2022/01/19 01:45:13;;;;;;;33.15;14.02;;;5.30;99.90;;;;;;5092059;28;20080;-45
2022/01/19 01:47:44;;;;;;;27.13;12.98;;;5.30;99.90;;;;;;5091470;28;20012;-46
2022/01/19 01:55:23;;;;;;;32.30;13.73;;;5.30;99.90;;;;;;5092377;28;20118;-44
2022/01/19 01:57:48;;;;;;;35.92;14.45;;;5.30;99.90;;;;;;5090134;28;20069;-45
2022/01/19 02:00:17;;;;;;;30.70;13.63;;;5.30;99.90;;;;;;5082976;28;20020;-45
2022/01/19 02:02:45;;;;;;;44.28;15.68;;;5.30;99.90;;;;;;5087328;28;20032;-44
2022/01/19 02:05:11;;;;;;;36.60;14.70;;;5.30;99.90;;;;;;5090279;28;20049;-44
2022/01/19 02:10:35;;;;;;;41.50;14.05;;;5.20;99.90;;;;;;5091829;28;20031;-46
2022/01/19 02:16:14;;;;;;;39.92;12.45;;;5.20;99.90;;;;;;5091556;28;20470;-44
2022/01/19 02:24:14;;;;;;;32.83;13.02;;;5.20;99.90;;;;;;5091727;28;20089;-44
2022/01/19 02:26:57;;;;;;;30.90;12.18;;;5.10;99.90;;;;;;5091395;28;20024;-45
2022/01/19 02:40:25;;;;;;;34.38;13.45;;;4.80;99.90;;;;;;5091426;28;20043;-45
2022/01/19 02:43:06;;;;;;;36.70;11.23;;;4.70;99.90;;;;;;5091100;28;20020;-44
2022/01/19 02:51:02;;;;;;;33.03;11.55;;;4.60;99.90;;;;;;5091166;28;20493;-45
2022/01/19 02:53:28;;;;;;;41.33;11.95;;;4.50;99.90;;;;;;5090200;28;20028;-45
2022/01/19 02:55:53;;;;;;;22.25;10.60;;;4.50;99.90;;;;;;5090828;28;20493;-44
2022/01/19 02:58:22;;;;;;;32.05;13.23;;;4.40;99.90;;;;;;5088216;28;20036;-44
2022/01/19 03:08:42;;;;;;;33.72;12.85;;;4.30;99.90;;;;;;5050678;28;20340;-45
2022/01/19 03:09:03;;;;;;;23.33;10.30;;;4.30;99.90;;;;;;5049774;28;20437;-45
2022/01/19 03:11:29;;;;;;;27.25;11.63;;;4.30;99.90;;;;;;5050557;28;20047;-45
2022/01/19 03:13:55;;;;;;;30.40;10.73;;;4.20;99.90;;;;;;5050194;28;20021;-45
2022/01/19 03:16:21;;;;;;;29.55;13.00;;;4.20;99.90;;;;;;5049913;28;20037;-44
2022/01/19 03:18:48;;;;;;;27.77;11.85;;;4.10;99.90;;;;;;5049630;28;20053;-44
2022/01/19 03:21:15;;;;;;;33.72;13.27;;;4.10;99.90;;;;;;5049758;28;20037;-44
2022/01/19 03:23:41;;;;;;;36.00;12.70;;;4.10;99.90;;;;;;5050448;28;20179;-44
2022/01/19 03:26:07;;;;;;;41.50;12.00;;;4.00;99.90;;;;;;5049910;28;20021;-44
2022/01/19 03:28:33;;;;;;;38.38;11.57;;;4.00;99.90;;;;;;5051138;28;20463;-44
2022/01/19 03:31:00;;;;;;;35.30;13.98;;;4.00;99.90;;;;;;5078811;28;20020;-44
2022/01/19 03:33:26;;;;;;;36.55;13.27;;;4.00;99.90;;;;;;5089991;28;20031;-45
2022/01/19 03:35:52;;;;;;;32.55;12.52;;;3.90;99.90;;;;;;5090014;28;20043;-44
2022/01/19 03:38:17;;;;;;;42.80;12.43;;;3.90;99.90;;;;;;5089716;28;20028;-44
2022/01/19 03:40:43;;;;;;;36.22;13.23;;;3.90;99.90;;;;;;5090390;28;20450;-45
2022/01/19 03:43:09;;;;;;;35.50;12.95;;;3.90;99.90;;;;;;5088587;28;20208;-45
2022/01/19 03:45:35;;;;;;;31.85;12.07;;;3.90;99.90;;;;;;5089443;28;20104;-45
2022/01/19 03:48:21;;;;;;;28.80;12.30;;;3.80;99.90;;;;;;5089217;28;20469;-45
2022/01/19 03:50:47;;;;;;;29.88;12.32;;;3.80;99.90;;;;;;5089892;28;20032;-45
2022/01/19 03:53:12;;;;;;;25.80;11.35;;;3.70;99.90;;;;;;5090060;28;20024;-45
2022/01/19 03:55:38;;;;;;;26.52;11.32;;;3.70;99.90;;;;;;5090249;28;20032;-45
2022/01/19 03:58:04;;;;;;;28.40;10.90;;;3.60;99.90;;;;;;5089673;28;20103;-45
2022/01/19 04:00:34;;;;;;;26.98;11.68;;;3.60;99.90;;;;;;5078802;28;20024;-44
2022/01/19 04:03:00;;;;;;;29.20;10.05;;;3.50;99.90;;;;;;5087622;28;20277;-45
2022/01/19 04:05:39;;;;;;;28.83;10.68;;;3.50;99.90;;;;;;5088869;28;20044;-45
2022/01/19 04:08:05;;;;;;;28.90;12.38;;;3.40;99.90;;;;;;5089149;28;20450;-44
2022/01/19 04:10:30;;;;;;;24.42;11.43;;;3.30;99.90;;;;;;5089954;28;20028;-44
2022/01/19 04:13:11;;;;;;;30.17;12.93;;;3.20;99.90;;;;;;5089780;28;20028;-44
2022/01/19 04:15:36;;;;;;;28.33;11.80;;;3.20;99.90;;;;;;5089954;28;20024;-44
2022/01/19 04:18:03;;;;;;;32.83;12.60;;;3.20;99.90;;;;;;5088896;28;20046;-44
2022/01/19 04:20:29;;;;;;;34.45;12.77;;;3.10;99.90;;;;;;5089459;28;20035;-44
2022/01/19 04:22:55;;;;;;;29.60;12.07;;;3.10;99.90;;;;;;5089284;28;20462;-44
2022/01/19 04:25:21;;;;;;;45.50;14.90;;;3.10;99.90;;;;;;5088957;28;20502;-44
2022/01/19 04:27:46;;;;;;;37.92;14.02;;;3.10;99.90;;;;;;5088535;28;20032;-45
2022/01/19 04:30:14;;;;;;;46.53;14.38;;;3.10;99.90;;;;;;5080484;28;20393;-44
2022/01/19 04:35:15;;;;;;;31.38;13.50;;;3.10;99.90;;;;;;5083157;28;20047;-44
2022/01/19 05:07:42;;;;;;;32.78;13.10;;;2.80;99.90;;;;;;5089286;28;20032;-44
2022/01/19 05:15:30;;;;;;;39.28;14.13;;;2.50;99.90;;;;;;5065208;28;20044;-44
2022/01/19 05:17:55;;;;;;;34.22;13.38;;;2.40;99.90;;;;;;5067291;28;20028;-44
2022/01/19 05:20:21;;;;;;;36.67;13.73;;;2.30;99.90;;;;;;5065531;28;20029;-44
2022/01/19 05:22:46;;;;;;;47.78;16.17;;;2.30;99.90;;;;;;5066230;28;20029;-46
2022/01/19 05:25:12;;;;;;;42.72;15.82;;;2.30;99.90;;;;;;5067761;28;20251;-44
2022/01/19 05:27:37;;;;;;;42.95;15.40;;;2.20;99.90;;;;;;5088156;28;20074;-44
2022/01/19 05:30:04;;;;;;;44.55;15.73;;;2.20;99.90;;;;;;5076349;28;20096;-43
2022/01/19 05:32:30;;;;;;;47.80;16.27;;;2.20;99.90;;;;;;5089060;28;20016;-43
2022/01/19 05:34:55;;;;;;;53.13;16.90;;;2.10;99.90;;;;;;5078253;28;20032;-44
2022/01/19 05:37:20;;;;;;;38.65;14.93;;;2.10;99.90;;;;;;5088322;28;20078;-43
2022/01/19 05:39:46;;;;;;;46.58;16.85;;;2.10;99.90;;;;;;5083809;28;20493;-44
2022/01/19 05:42:15;;;;;;;50.45;19.05;;;2.20;99.90;;;;;;5080513;28;20073;-44
2022/01/19 05:44:45;;;;;;;37.55;14.48;;;2.10;99.90;;;;;;5079699;28;20036;-43
2022/01/19 05:47:11;;;;;;;48.33;16.55;;;2.20;99.90;;;;;;5083591;28;20035;-44
2022/01/19 05:49:38;;;;;;;44.88;16.98;;;2.20;99.90;;;;;;5079052;28;20471;-44
2022/01/19 05:52:05;;;;;;;43.58;16.48;;;2.20;99.90;;;;;;5090011;28;20020;-45
2022/01/19 05:54:31;;;;;;;42.25;16.13;;;2.20;99.90;;;;;;5077982;28;20101;-44
2022/01/19 05:56:57;;;;;;;53.42;15.88;;;2.20;99.90;;;;;;5093619;28;20454;-45
2022/01/19 05:59:23;;;;;;;40.65;16.80;;;2.20;99.90;;;;;;5080529;28;20042;-43
2022/01/19 06:01:48;;;;;;;38.13;15.45;;;2.20;99.90;;;;;;5071294;28;20028;-45
2022/01/19 06:04:14;;;;;;;38.72;15.27;;;2.10;99.90;;;;;;5063827;28;20579;-44
2022/01/19 06:06:39;;;;;;;41.78;16.05;;;2.10;99.90;;;;;;5066333;28;20067;-45
2022/01/19 06:09:20;;;;;;;36.80;15.52;;;2.10;99.90;;;;;;5066578;28;20708;-43
2022/01/19 06:11:46;;;;;;;;;;;2.10;99.90;;;;;;5056340;28;20054;-46
2022/01/19 06:14:11;;;;;;;46.53;15.38;;;2.10;99.90;;;;;;5054733;28;19974;-44
2022/01/19 06:16:37;;;;;;;49.33;16.38;;;2.00;99.90;;;;;;5067810;28;20028;-45
2022/01/19 06:19:02;;;;;;;37.95;15.25;;;1.90;99.90;;;;;;5061516;28;20062;-43
2022/01/19 06:21:28;;;;;;;49.83;18.45;;;1.80;99.90;;;;;;5062764;28;20025;-44
2022/01/19 06:23:53;;;;;;;50.60;18.88;;;1.80;99.90;;;;;;5061305;28;20440;-44
2022/01/19 06:26:18;;;;;;;39.70;16.13;;;1.80;99.90;;;;;;5061326;28;20048;-45
2022/01/19 06:28:44;;;;;;;41.80;16.38;;;1.80;99.90;;;;;;5059442;28;20477;-43
2022/01/19 06:31:09;;;;;;;47.92;17.52;;;1.80;99.90;;;;;;5067490;28;20033;-44
2022/01/19 06:33:35;;;;;;;51.92;18.50;;;1.80;99.90;;;;;;5062218;28;20025;-44
2022/01/19 06:36:00;;;;;;;47.58;15.25;;;1.80;99.90;;;;;;5071216;28;20036;-44
2022/01/19 06:38:26;;;;;;;41.40;17.23;;;1.80;99.90;;;;;;5081991;28;20474;-45
2022/01/19 06:40:51;;;;;;;47.33;16.83;;;1.70;99.90;;;;;;5091363;28;20028;-44
2022/01/19 06:43:17;;;;;;;48.97;17.40;;;1.70;99.90;;;;;;5078187;28;20074;-43
2022/01/19 06:45:42;;;;;;;45.08;16.42;;;1.70;99.90;;;;;;5067524;28;20397;-44
2022/01/19 06:48:08;;;;;;;43.85;15.75;;;1.70;99.90;;;;;;5061814;28;20063;-44
2022/01/19 06:50:33;;;;;;;33.70;15.73;;;1.70;99.90;;;;;;5073751;28;20112;-43
2022/01/19 06:52:59;;;;;;;39.85;15.20;;;1.70;99.90;;;;;;5069035;28;20452;-44
2022/01/19 06:55:24;;;;;;;41.60;16.00;;;1.70;99.90;;;;;;5083350;28;20031;-45
2022/01/19 06:57:50;;;;;;;34.17;14.57;;;1.70;99.90;;;;;;5061962;28;20032;-43
2022/01/19 07:00:16;;;;;;;42.55;17.17;;;1.70;99.90;;;;;;5067376;28;20039;-43
2022/01/19 07:02:42;;;;;;;43.72;15.95;;;1.70;99.90;;;;;;5084237;28;20067;-45
2022/01/19 07:05:08;;;;;;;37.70;14.85;;;1.60;99.90;;;;;;5070433;28;20059;-44
2022/01/19 07:07:33;;;;;;;36.53;14.50;;;1.60;99.90;;;;;;5055365;28;20025;-44
2022/01/19 07:09:59;;;;;;;47.60;14.95;;;1.50;99.90;;;;;;5058763;28;20036;-44
2022/01/19 07:12:29;;;;;;;41.35;15.38;;;1.50;99.90;;;;;;5057661;28;20048;-44
2022/01/19 07:14:54;;;;;;;42.22;17.00;;;1.40;99.90;;;;;;5071807;28;20024;-47
2022/01/19 07:17:20;;;;;;;41.92;16.00;;;1.40;99.90;;;;;;5061690;28;20044;-44
2022/01/19 07:19:45;;;;;;;38.08;14.15;;;1.40;99.90;;;;;;5067778;28;20021;-44
2022/01/19 07:22:11;;;;;;;36.47;16.10;;;1.30;99.90;;;;;;5056564;28;20025;-50
2022/01/19 07:24:36;;;;;;;33.75;14.27;;;1.40;99.90;;;;;;5067743;28;20032;-44
2022/01/19 07:27:02;;;;;;;37.22;15.77;;;1.40;99.90;;;;;;5066958;28;20024;-43
2022/01/19 07:29:28;;;;;;;34.72;15.35;;;1.40;99.90;;;;;;5066490;28;20033;-43
2022/01/19 07:31:56;;;;;;;40.97;16.02;;;1.40;99.90;;;;;;5066926;28;20392;-45
2022/01/19 07:34:22;;;;;;;45.55;16.95;;;1.40;99.90;;;;;;5065747;28;20054;-45
2022/01/19 07:36:47;;;;;;;44.53;15.27;;;1.50;99.90;;;;;;5059235;28;20079;-43
2022/01/19 07:39:14;;;;;;;38.92;15.40;;;1.60;99.90;;;;;;5049925;28;20078;-46
2022/01/19 07:41:39;;;;;;;44.03;16.80;;;1.60;99.90;;;;;;5066446;28;20171;-43
2022/01/19 07:44:05;;;;;;;39.72;15.45;;;1.60;99.90;;;;;;5070923;28;20116;-44
2022/01/19 07:46:31;;;;;;;38.30;14.93;;;1.70;99.90;;;;;;5065336;28;20082;-43
2022/01/19 07:48:56;;;;;;;36.75;15.95;;;1.70;99.90;;;;;;5066339;28;20033;-44
2022/01/19 07:51:22;;;;;;;38.03;16.30;;;1.70;99.90;;;;;;5063464;28;20027;-43
2022/01/19 07:53:47;;;;;;;37.58;14.85;;;1.80;99.90;;;;;;5061103;28;20623;-44
2022/01/19 07:56:13;;;;;;;41.63;15.20;;;1.80;99.90;;;;;;5080997;28;20017;-44
2022/01/19 07:58:38;;;;;;;30.10;12.88;;;1.90;99.90;;;;;;5062565;28;20035;-43
2022/01/19 08:01:04;;;;;;;33.90;15.27;;;1.90;99.90;;;;;;5080699;28;20588;-45
2022/01/19 08:03:29;;;;;;;40.15;14.70;;;2.00;99.90;;;;;;5091299;28;20035;-44
2022/01/19 08:05:55;;;;;;;26.63;13.30;;;2.10;99.90;;;;;;5079921;28;20501;-44
2022/01/19 08:08:20;;;;;;;38.75;15.75;;;2.10;99.90;;;;;;5065767;28;20025;-46
2022/01/19 08:10:47;;;;;;;33.10;15.32;;;2.10;99.90;;;;;;5050987;28;20051;-44
2022/01/19 08:13:15;;;;;;;28.40;13.15;;;2.20;99.90;;;;;;5055270;28;20017;-43
2022/01/19 08:15:41;;;;;;;32.75;14.00;;;2.20;99.90;;;;;;5069463;28;20446;-44
2022/01/19 08:18:06;;;;;;;37.05;15.15;;;2.20;99.90;;;;;;5061045;28;20029;-44
2022/01/19 08:20:32;;;;;;;33.25;15.07;;;2.30;99.90;;;;;;5070454;28;20036;-44
2022/01/19 08:22:58;;;;;;;33.72;15.43;;;2.30;99.90;;;;;;5070745;28;20036;-43
2022/01/19 08:25:23;;;;;;;31.52;14.10;;;2.30;99.90;;;;;;5070678;28;20055;-43
2022/01/19 08:27:49;;;;;;;30.83;13.98;;;2.30;99.90;;;;;;5059235;28;20025;-44
2022/01/19 08:30:15;;;;;;;26.38;13.75;;;2.40;99.90;;;;;;5069369;28;20685;-45
2022/01/19 08:32:40;;;;;;;33.75;14.35;;;2.40;99.90;;;;;;5084366;28;20084;-47
2022/01/19 08:35:07;;;;;;;29.52;13.88;;;2.50;99.90;;;;;;5084231;28;20043;-46
2022/01/19 08:37:33;;;;;;;33.05;13.45;;;2.50;99.90;;;;;;5058146;28;20037;-45
2022/01/19 08:40:00;;;;;;;23.05;12.73;;;2.50;99.90;;;;;;5050666;28;20024;-44
2022/01/19 08:42:26;;;;;;;27.98;13.32;;;2.50;99.90;;;;;;5070593;28;20565;-44
2022/01/19 08:44:53;;;;;;;27.40;14.13;;;2.50;99.90;;;;;;5059226;28;20733;-45
2022/01/19 08:47:19;;;;;;;27.90;14.80;;;2.50;99.90;;;;;;5049832;28;20024;-53
2022/01/19 08:49:44;;;;;;;36.35;15.13;;;2.50;99.90;;;;;;5058914;28;20040;-45
2022/01/19 08:52:10;;;;;;;28.30;14.07;;;2.50;99.90;;;;;;5069650;28;20032;-43
2022/01/19 08:54:35;;;;;;;27.73;13.15;;;2.60;99.90;;;;;;5068869;28;20021;-42
2022/01/19 08:57:02;;;;;;;29.55;15.13;;;2.70;99.90;;;;;;5065059;28;20441;-42
2022/01/19 08:59:28;;;;;;;28.60;14.25;;;2.80;99.90;;;;;;5067643;28;20417;-46
2022/01/19 09:01:54;;;;;;;33.55;14.77;;;2.90;99.90;;;;;;5075546;28;20024;-44
2022/01/19 09:04:20;;;;;;;27.42;13.52;;;2.90;99.90;;;;;;5090227;28;20516;-43
2022/01/19 09:06:45;;;;;;;29.83;14.75;;;3.00;99.90;;;;;;5067850;28;20033;-43
2022/01/19 09:09:11;;;;;;;27.73;14.77;;;3.10;99.90;;;;;;5055520;28;20545;-44
2022/01/19 09:11:37;;;;;;;29.48;14.45;;;3.10;99.90;;;;;;5068571;28;20035;-43
2022/01/19 09:14:06;;;;;;;26.60;14.18;;;3.20;99.90;;;;;;5066839;28;20016;-44
2022/01/19 09:16:32;;;;;;;24.95;14.52;;;3.20;99.90;;;;;;5055394;28;20028;-45
2022/01/19 09:18:58;;;;;;;25.65;13.25;;;3.30;99.90;;;;;;5062783;28;20048;-43
2022/01/19 09:21:23;;;;;;;22.17;13.32;;;3.40;99.90;;;;;;5048425;28;20550;-44
2022/01/19 09:23:49;;;;;;;27.88;14.50;;;3.40;99.90;;;;;;5061935;28;20491;-43
2022/01/19 09:26:14;;;;;;;28.73;14.57;;;3.60;99.90;;;;;;5050813;28;20046;-43
2022/01/19 09:28:40;;;;;;;20.55;12.35;;;3.70;99.90;;;;;;5074144;28;20371;-44
2022/01/19 09:31:11;;;;;;;24.48;12.70;;;3.90;99.90;;;;;;5079135;28;20366;-43
2022/01/19 09:33:37;;;;;;;22.23;13.10;;;4.00;99.90;;;;;;5088570;28;20059;-45
2022/01/19 09:38:31;;;;;;;22.33;14.07;;;4.20;99.90;;;;;;5066043;28;20111;-45
2022/01/19 09:40:57;;;;;;;22.92;13.68;;;4.10;99.90;;;;;;5048124;28;20049;-43
2022/01/19 09:43:23;;;;;;;20.58;13.25;;;4.10;99.90;;;;;;5046389;28;20029;-43
2022/01/19 09:45:50;;;;;;;20.17;13.45;;;4.10;99.90;;;;;;5062736;28;20038;-43
2022/01/19 09:48:16;;;;;;;23.63;14.55;;;4.00;99.90;;;;;;5052127;28;20525;-43
2022/01/19 09:50:42;;;;;;;22.98;13.65;;;4.20;99.90;;;;;;5076633;28;20107;-44
2022/01/19 09:53:08;;;;;;;25.77;14.82;;;4.10;99.90;;;;;;5057603;28;20086;-43
2022/01/19 09:55:35;;;;;;;20.08;12.65;;;4.20;99.90;;;;;;5050910;28;20052;-45
2022/01/19 09:58:01;;;;;;;18.40;13.05;;;4.20;99.90;;;;;;5056461;28;20062;-43
2022/01/19 10:00:27;;;;;;;17.20;11.73;;;4.20;99.90;;;;;;5074027;28;20032;-44
2022/01/19 10:03:21;;;;;;;15.38;11.43;;;4.20;99.90;;;;;;5074081;28;20036;-44
2022/01/19 10:06:02;;;;;;;16.08;12.02;;;4.20;99.90;;;;;;5051595;28;20372;-44
2022/01/19 10:08:30;;;;;;;18.42;11.95;;;4.30;99.90;;;;;;5060735;28;20282;-44
2022/01/19 10:11:18;;;;;;;20.50;13.10;;;4.20;99.90;;;;;;5058222;28;20490;-44
2022/01/19 10:19:42;;;;;;;21.15;12.73;;;4.30;99.90;;;;;;5051403;28;20032;-45
2022/01/19 10:22:13;;;;;;;16.92;11.60;;;4.30;99.90;;;;;;5051279;28;20029;-44
2022/01/19 10:24:41;;;;;;;16.45;11.30;;;4.30;99.90;;;;;;5051268;28;20059;-45
2022/01/19 10:27:26;;;;;;;15.25;11.48;;;4.30;99.90;;;;;;5062981;28;20532;-45
2022/01/19 10:29:53;;;;;;;17.48;12.43;;;4.30;99.90;;;;;;5074381;28;20055;-44
2022/01/19 10:32:21;;;;;;;18.75;13.13;;;4.30;99.90;;;;;;5075006;28;20028;-45
2022/01/19 10:34:47;;;;;;;18.08;12.05;;;4.40;99.90;;;;;;5090775;28;20047;-46
2022/01/19 10:37:12;;;;;;;17.92;12.38;;;4.50;99.90;;;;;;5061380;28;20116;-44
2022/01/19 10:39:46;;;;;;;17.90;12.25;;;4.60;99.90;;;;;;5065173;28;20024;-46
2022/01/19 10:42:15;;;;;;;17.67;13.57;;;4.60;99.90;;;;;;5071335;28;20033;-45
2022/01/19 10:44:45;;;;;;;16.58;12.23;;;4.70;99.90;;;;;;5070736;28;20375;-44
2022/01/19 10:47:11;;;;;;;16.67;13.15;;;4.60;99.90;;;;;;5070864;28;20028;-45
2022/01/19 10:49:47;;;;;;;16.75;12.77;;;4.60;99.90;;;;;;5057560;28;20506;-43
2022/01/19 10:52:30;;;;;;;15.93;11.60;;;4.60;99.90;;;;;;5055934;28;20250;-44
2022/01/19 10:54:57;;;;;;;16.42;11.80;;;4.50;99.90;;;;;;5072149;28;20020;-45
2022/01/19 10:57:23;;;;;;;15.93;11.65;;;4.50;99.90;;;;;;5069974;28;20032;-44
2022/01/19 10:59:50;;;;;;;16.02;11.23;;;4.50;99.90;;;;;;5075083;28;20028;-44
2022/01/19 11:02:17;;;;;;;15.77;11.73;;;4.50;99.90;;;;;;5082407;28;20039;-44
2022/01/19 11:04:45;;;;;;;17.25;10.95;;;4.60;99.90;;;;;;5090774;28;20077;-44
2022/01/19 11:07:13;;;;;;;16.55;10.10;;;4.60;99.90;;;;;;5070425;28;20091;-44
2022/01/19 11:09:46;;;;;;;15.50;11.00;;;4.60;99.90;;;;;;5064282;28;20032;-44
2022/01/19 11:12:18;;;;;;;13.00;9.70;;;4.60;99.90;;;;;;5067624;28;20036;-47
2022/01/19 11:14:45;;;;;;;12.88;10.65;;;4.60;99.90;;;;;;5068575;28;20073;-44
2022/01/19 11:17:11;;;;;;;12.45;9.60;;;4.60;99.90;;;;;;5061397;28;20031;-44
2022/01/19 11:19:43;;;;;;;13.02;9.02;;;4.60;99.90;;;;;;5055940;28;20074;-49
2022/01/19 11:22:30;;;;;;;12.07;8.57;;;4.70;99.90;;;;;;5070233;28;20110;-47
2022/01/19 11:25:03;;;;;;;11.02;8.02;;;4.60;99.90;;;;;;5069929;28;20437;-45
2022/01/19 11:27:40;;;;;;;14.63;8.10;;;4.60;99.90;;;;;;5051250;28;20314;-48
2022/01/19 11:30:19;;;;;;;9.65;7.75;;;4.70;99.90;;;;;;5071117;28;20274;-45
2022/01/19 11:33:17;;;;;;;12.18;8.50;;;4.70;99.90;;;;;;5085949;28;20053;-45
2022/01/19 11:35:47;;;;;;;12.85;8.18;;;4.70;99.90;;;;;;5076895;28;20024;-44
2022/01/19 11:38:42;;;;;;;11.40;8.50;;;4.80;99.90;;;;;;5055274;28;20024;-44
2022/01/19 11:41:07;;;;;;;10.38;8.18;;;4.80;99.90;;;;;;5077043;28;20024;-47
2022/01/19 11:43:36;;;;;;;9.65;7.65;;;4.70;99.90;;;;;;5077485;28;20189;-44
2022/01/19 11:46:03;;;;;;;9.23;7.28;;;4.80;99.90;;;;;;5058387;28;20148;-45
2022/01/19 11:48:35;;;;;;;11.15;7.38;;;4.80;99.90;;;;;;5077806;28;20042;-43
2022/01/19 11:51:22;;;;;;;8.82;6.85;;;4.90;99.90;;;;;;5055870;28;20397;-44
2022/01/19 11:54:06;;;;;;;9.60;7.20;;;4.90;99.90;;;;;;5065633;28;20173;-44
2022/01/19 11:56:33;;;;;;;8.90;7.10;;;4.80;99.90;;;;;;5052721;28;20025;-43
2022/01/19 11:59:07;;;;;;;9.30;7.32;;;4.80;99.90;;;;;;5049893;28;20059;-46
2022/01/19 12:01:33;;;;;;;9.13;7.40;;;4.70;99.90;;;;;;5075986;28;20501;-45
2022/01/19 12:04:22;;;;;;;9.23;7.05;;;4.70;99.90;;;;;;5071683;28;20024;-48
2022/01/19 12:06:48;;;;;;;9.57;6.72;;;4.70;99.90;;;;;;5055253;28;20116;-45
2022/01/19 12:09:16;;;;;;;9.40;7.13;;;4.70;99.90;;;;;;5058084;28;20029;-43
2022/01/19 12:11:50;;;;;;;9.32;6.97;;;4.60;99.90;;;;;;5055564;28;20064;-44
2022/01/19 12:14:24;;;;;;;8.30;6.97;;;4.70;99.90;;;;;;5049108;28;20513;-45
2022/01/19 12:17:08;;;;;;;10.07;7.45;;;4.70;99.90;;;;;;5053060;28;20032;-47
2022/01/19 12:19:40;;;;;;;8.70;7.20;;;4.70;99.90;;;;;;5055769;28;20099;-44
2022/01/19 12:22:21;;;;;;;9.27;6.50;;;4.70;99.90;;;;;;5057325;28;20410;-45
2022/01/19 12:25:02;;;;;;;11.77;7.97;;;4.70;99.90;;;;;;5057138;28;20025;-44
2022/01/19 12:27:34;;;;;;;7.28;6.35;;;4.70;99.90;;;;;;5055768;28;20093;-44
2022/01/19 12:30:09;;;;;;;8.52;6.97;;;4.70;99.90;;;;;;5056389;28;20037;-44
2022/01/19 12:32:47;;;;;;;10.88;8.05;;;4.70;99.90;;;;;;5080705;28;20012;-45
2022/01/19 12:35:16;;;;;;;11.40;7.57;;;4.70;99.90;;;;;;5074109;28;20031;-44
2022/01/19 12:37:41;;;;;;;10.98;7.25;;;4.70;99.90;;;;;;5068503;28;20040;-44
2022/01/19 12:40:39;;;;;;;9.27;7.32;;;4.70;99.90;;;;;;5068441;28;20036;-44
2022/01/19 12:43:08;;;;;;;10.02;7.57;;;4.70;99.90;;;;;;5067655;28;20051;-45
2022/01/19 12:45:50;;;;;;;9.40;7.22;;;4.70;99.90;;;;;;5066601;28;20444;-45
2022/01/19 12:48:37;;;;;;;10.45;8.07;;;4.60;99.90;;;;;;5064855;28;20035;-44
2022/01/19 12:51:03;;;;;;;11.02;7.95;;;4.60;99.90;;;;;;5053168;28;20029;-44
2022/01/19 12:53:29;;;;;;;11.13;7.40;;;4.70;99.90;;;;;;5059411;28;20016;-45
2022/01/19 12:56:03;;;;;;;10.77;7.32;;;4.60;99.90;;;;;;5079744;28;20161;-43
2022/01/19 12:58:36;;;;;;;10.73;7.25;;;4.70;99.90;;;;;;5064396;28;20086;-44
2022/01/19 13:01:05;;;;;;;10.82;8.15;;;4.60;99.90;;;;;;5071301;28;20024;-44
2022/01/19 13:03:34;;;;;;;8.82;7.30;;;4.60;99.90;;;;;;5082215;28;20381;-44
2022/01/19 13:06:07;;;;;;;10.35;7.15;;;4.70;99.90;;;;;;5079876;28;20037;-44
2022/01/19 13:08:42;;;;;;;8.48;6.68;;;4.60;99.90;;;;;;5061281;28;20699;-44
2022/01/19 13:11:37;;;;;;;11.52;6.78;;;4.60;99.90;;;;;;5062588;28;20025;-47
2022/01/19 13:14:06;;;;;;;7.80;6.60;;;4.50;99.90;;;;;;5074748;28;20082;-44
2022/01/19 13:16:39;;;;;;;9.80;7.60;;;4.50;99.90;;;;;;5070903;28;20021;-44
2022/01/19 13:19:09;;;;;;;10.18;8.00;;;4.50;99.90;;;;;;5062338;28;20039;-44
2022/01/19 13:21:36;;;;;;;8.40;7.17;;;4.50;99.90;;;;;;5056646;28;20099;-44
2022/01/19 13:24:14;;;;;;;10.10;7.63;;;4.50;99.90;;;;;;5057194;28;20024;-44
2022/01/19 13:26:55;;;;;;;10.23;7.75;;;4.40;99.90;;;;;;5061411;28;20025;-44
2022/01/19 13:29:38;;;;;;;10.73;7.82;;;4.40;99.90;;;;;;5061403;28;20021;-44
2022/01/19 13:32:06;;;;;;;9.95;8.05;;;4.50;99.90;;;;;;5067618;28;20078;-45
2022/01/19 13:34:53;;;;;;;11.23;8.63;;;4.40;99.90;;;;;;5054754;28;20014;-42
2022/01/19 13:37:19;;;;;;;12.05;8.48;;;4.40;99.90;;;;;;5070416;28;20051;-45
2022/01/19 13:39:54;;;;;;;10.88;8.77;;;4.40;99.90;;;;;;5075926;28;20530;-47
2022/01/19 13:42:42;;;;;;;12.48;9.70;;;4.50;99.90;;;;;;5072119;28;20197;-46
2022/01/19 13:45:13;;;;;;;11.95;8.80;;;4.50;99.90;;;;;;5064204;28;20490;-45
2022/01/19 13:48:06;;;;;;;11.68;7.93;;;4.50;99.90;;;;;;5063224;28;20398;-44
2022/01/19 13:50:33;;;;;;;12.68;9.75;;;4.40;99.90;;;;;;5054749;28;20028;-45
2022/01/19 13:53:00;;;;;;;12.90;9.15;;;4.50;99.90;;;;;;5067885;28;20516;-44
2022/01/19 13:55:26;;;;;;;11.50;8.98;;;4.40;99.90;;;;;;5077182;28;20466;-44
2022/01/19 13:58:03;;;;;;;12.85;9.75;;;4.40;99.90;;;;;;5064877;28;20032;-45
2022/01/19 14:00:28;;;;;;;14.10;9.98;;;4.40;99.90;;;;;;5076152;28;20035;-44
2022/01/19 14:03:02;;;;;;;24.23;15.07;;;4.50;99.90;;;;;;5083411;28;20510;-44
2022/01/19 14:05:45;;;;;;;12.23;9.60;;;4.50;99.90;;;;;;5082359;28;20386;-44
2022/01/19 14:08:11;;;;;;;15.82;10.45;;;4.50;99.90;;;;;;5053405;28;20033;-44
2022/01/19 14:10:40;;;;;;;15.10;9.75;;;4.50;99.90;;;;;;5067686;28;20092;-43
2022/01/19 14:13:28;;;;;;;15.30;11.10;;;4.50;99.90;;;;;;5071258;28;20056;-44
2022/01/19 14:16:19;;;;;;;12.82;9.43;;;4.50;99.90;;;;;;5063393;28;20024;-45